sensor_id;sensor_type;location;lat;lon;timestamp;temperature;humidity
19493;DHT22;9887;54.366;10.958;2023-11-18T00:00:19;6.90;99.90
19493;DHT22;9887;54.366;10.958;2023-11-18T00:02:47;6.90;99.90
19493;DHT22;9887;54.366;10.958;2023-11-18T00:05:16;6.90;99.90
19493;DHT22;9887;54.366;10.958;2023-11-18T00:07:44;6.90;99.90
19493;DHT22;9887;54.366;10.958;2023-11-18T00:10:13;6.90;99.90
19493;DHT22;9887;54.366;10.958;2023-11-18T00:12:41;6.90;99.90
19493;DHT22;9887;54.366;10.958;2023-11-18T00:15:09;6.90;99.90
19493;DHT22;9887;54.366;10.958;2023-11-18T00:17:39;6.90;99.90
19493;DHT22;9887;54.366;10.958;2023-11-18T00:20:07;6.90;99.90
19493;DHT22;9887;54.366;10.958;2023-11-18T00:22:39;6.90;99.90
19493;DHT22;9887;54.366;10.958;2023-11-18T00:25:09;6.90;99.90
19493;DHT22;9887;54.366;10.958;2023-11-18T00:27:39;6.90;99.90
19493;DHT22;9887;54.366;10.958;2023-11-18T00:30:07;6.90;99.90
19493;DHT22;9887;54.366;10.958;2023-11-18T00:32:37;6.90;99.90
19493;DHT22;9887;54.366;10.958;2023-11-18T00:35:07;6.90;99.90
19493;DHT22;9887;54.366;10.958;2023-11-18T00:37:35;6.90;99.90
19493;DHT22;9887;54.366;10.958;2023-11-18T00:40:04;6.90;99.90
19493;DHT22;9887;54.366;10.958;2023-11-18T00:42:32;6.90;99.90
19493;DHT22;9887;54.366;10.958;2023-11-18T00:45:01;6.90;99.90
19493;DHT22;9887;54.366;10.958;2023-11-18T00:47:30;6.90;99.90
19493;DHT22;9887;54.366;10.958;2023-11-18T00:49:58;6.90;99.90
19493;DHT22;9887;54.366;10.958;2023-11-18T00:52:29;6.90;99.90
19493;DHT22;9887;54.366;10.958;2023-11-18T00:54:56;6.90;99.90
19493;DHT22;9887;54.366;10.958;2023-11-18T00:57:25;6.90;99.90
19493;DHT22;9887;54.366;10.958;2023-11-18T00:59:53;6.90;99.90
19493;DHT22;9887;54.366;10.958;2023-11-18T01:02:23;6.90;99.90
19493;DHT22;9887;54.366;10.958;2023-11-18T01:04:52;6.90;99.90
19493;DHT22;9887;54.366;10.958;2023-11-18T01:07:20;6.90;99.90
19493;DHT22;9887;54.366;10.958;2023-11-18T01:09:48;6.90;99.90
19493;DHT22;9887;54.366;10.958;2023-11-18T01:12:16;6.90;99.90
19493;DHT22;9887;54.366;10.958;2023-11-18T01:14:44;6.90;99.90
19493;DHT22;9887;54.366;10.958;2023-11-18T01:17:12;6.90;99.90
19493;DHT22;9887;54.366;10.958;2023-11-18T01:19:42;6.90;99.90
19493;DHT22;9887;54.366;10.958;2023-11-18T01:22:10;6.90;99.90
19493;DHT22;9887;54.366;10.958;2023-11-18T01:24:38;6.90;99.90
19493;DHT22;9887;54.366;10.958;2023-11-18T01:27:06;6.90;99.90
19493;DHT22;9887;54.366;10.958;2023-11-18T01:29:38;6.90;99.90
19493;DHT22;9887;54.366;10.958;2023-11-18T01:32:07;6.90;99.90
19493;DHT22;9887;54.366;10.958;2023-11-18T01:34:36;6.90;99.90
19493;DHT22;9887;54.366;10.958;2023-11-18T01:37:07;6.90;99.90
19493;DHT22;9887;54.366;10.958;2023-11-18T01:39:36;6.90;99.90
19493;DHT22;9887;54.366;10.958;2023-11-18T01:42:04;6.90;99.90
19493;DHT22;9887;54.366;10.958;2023-11-18T01:44:32;6.90;99.90
19493;DHT22;9887;54.366;10.958;2023-11-18T01:47:03;6.90;99.90
19493;DHT22;9887;54.366;10.958;2023-11-18T01:49:35;6.90;99.90
19493;DHT22;9887;54.366;10.958;2023-11-18T01:52:08;6.90;99.90
19493;DHT22;9887;54.366;10.958;2023-11-18T01:54:39;6.80;99.90
19493;DHT22;9887;54.366;10.958;2023-11-18T01:57:11;6.80;99.90
19493;DHT22;9887;54.366;10.958;2023-11-18T01:59:41;6.90;99.90
19493;DHT22;9887;54.366;10.958;2023-11-18T02:02:09;6.90;99.90
19493;DHT22;9887;54.366;10.958;2023-11-18T02:04:38;6.90;99.90
19493;DHT22;9887;54.366;10.958;2023-11-18T02:07:09;6.80;99.90
19493;DHT22;9887;54.366;10.958;2023-11-18T02:09:39;6.80;99.90
19493;DHT22;9887;54.366;10.958;2023-11-18T02:12:16;6.90;99.90
19493;DHT22;9887;54.366;10.958;2023-11-18T02:14:48;6.80;99.90
19493;DHT22;9887;54.366;10.958;2023-11-18T02:17:19;6.80;99.90
19493;DHT22;9887;54.366;10.958;2023-11-18T02:19:51;6.80;99.90
19493;DHT22;9887;54.366;10.958;2023-11-18T02:22:21;6.80;99.90
19493;DHT22;9887;54.366;10.958;2023-11-18T02:24:49;6.80;99.90
19493;DHT22;9887;54.366;10.958;2023-11-18T02:27:19;6.80;99.90
19493;DHT22;9887;54.366;10.958;2023-11-18T02:29:49;6.80;99.90
19493;DHT22;9887;54.366;10.958;2023-11-18T02:32:22;6.80;99.90
19493;DHT22;9887;54.366;10.958;2023-11-18T02:35:01;6.80;99.90
19493;DHT22;9887;54.366;10.958;2023-11-18T02:37:33;6.80;99.90
19493;DHT22;9887;54.366;10.958;2023-11-18T02:40:04;6.80;99.90
19493;DHT22;9887;54.366;10.958;2023-11-18T02:42:37;6.80;99.90
19493;DHT22;9887;54.366;10.958;2023-11-18T02:45:07;6.80;99.90
19493;DHT22;9887;54.366;10.958;2023-11-18T02:47:39;6.80;99.90
19493;DHT22;9887;54.366;10.958;2023-11-18T02:50:07;6.80;99.90
19493;DHT22;9887;54.366;10.958;2023-11-18T02:52:37;6.80;99.90
19493;DHT22;9887;54.366;10.958;2023-11-18T02:55:07;6.80;99.90
19493;DHT22;9887;54.366;10.958;2023-11-18T02:57:37;6.80;99.90
19493;DHT22;9887;54.366;10.958;2023-11-18T03:00:06;6.80;99.90
19493;DHT22;9887;54.366;10.958;2023-11-18T03:02:39;6.80;99.90
19493;DHT22;9887;54.366;10.958;2023-11-18T03:05:08;6.70;99.90
19493;DHT22;9887;54.366;10.958;2023-11-18T03:07:38;6.80;99.90
19493;DHT22;9887;54.366;10.958;2023-11-18T03:10:07;6.70;99.90
19493;DHT22;9887;54.366;10.958;2023-11-18T03:12:39;6.70;99.90
19493;DHT22;9887;54.366;10.958;2023-11-18T03:15:08;6.70;99.90
19493;DHT22;9887;54.366;10.958;2023-11-18T03:17:38;6.70;99.90
19493;DHT22;9887;54.366;10.958;2023-11-18T03:20:07;6.70;99.90
19493;DHT22;9887;54.366;10.958;2023-11-18T03:22:36;6.70;99.90
19493;DHT22;9887;54.366;10.958;2023-11-18T03:25:05;6.70;99.90
19493;DHT22;9887;54.366;10.958;2023-11-18T03:27:34;6.60;99.90
19493;DHT22;9887;54.366;10.958;2023-11-18T03:30:05;6.60;99.90
19493;DHT22;9887;54.366;10.958;2023-11-18T03:32:34;6.60;99.90
19493;DHT22;9887;54.366;10.958;2023-11-18T03:35:03;6.60;99.90
19493;DHT22;9887;54.366;10.958;2023-11-18T03:37:34;6.60;99.90
19493;DHT22;9887;54.366;10.958;2023-11-18T03:40:02;6.60;99.90
19493;DHT22;9887;54.366;10.958;2023-11-18T03:42:32;6.60;99.90
19493;DHT22;9887;54.366;10.958;2023-11-18T03:45:00;6.50;99.90
19493;DHT22;9887;54.366;10.958;2023-11-18T03:47:29;6.50;99.90
19493;DHT22;9887;54.366;10.958;2023-11-18T03:49:58;6.50;99.90
19493;DHT22;9887;54.366;10.958;2023-11-18T03:52:26;6.50;99.90
19493;DHT22;9887;54.366;10.958;2023-11-18T03:54:55;6.50;99.90
19493;DHT22;9887;54.366;10.958;2023-11-18T03:57:23;6.50;99.90
19493;DHT22;9887;54.366;10.958;2023-11-18T03:59:52;6.50;99.90
19493;DHT22;9887;54.366;10.958;2023-11-18T04:02:19;6.40;99.90
19493;DHT22;9887;54.366;10.958;2023-11-18T04:04:49;6.40;99.90
19493;DHT22;9887;54.366;10.958;2023-11-18T04:07:17;6.40;99.90
19493;DHT22;9887;54.366;10.958;2023-11-18T04:09:44;6.40;99.90
19493;DHT22;9887;54.366;10.958;2023-11-18T04:12:12;6.40;99.90
19493;DHT22;9887;54.366;10.958;2023-11-18T04:14:41;6.30;99.90
19493;DHT22;9887;54.366;10.958;2023-11-18T04:17:09;6.40;99.90
19493;DHT22;9887;54.366;10.958;2023-11-18T04:19:37;6.30;99.90
19493;DHT22;9887;54.366;10.958;2023-11-18T04:22:07;6.30;99.90
19493;DHT22;9887;54.366;10.958;2023-11-18T04:24:37;6.30;99.90
19493;DHT22;9887;54.366;10.958;2023-11-18T04:27:05;6.30;99.90
19493;DHT22;9887;54.366;10.958;2023-11-18T04:29:33;6.30;99.90
19493;DHT22;9887;54.366;10.958;2023-11-18T04:32:03;6.30;99.90
19493;DHT22;9887;54.366;10.958;2023-11-18T04:34:32;6.20;99.90
19493;DHT22;9887;54.366;10.958;2023-11-18T04:37:00;6.20;99.90
19493;DHT22;9887;54.366;10.958;2023-11-18T04:39:31;6.20;99.90
19493;DHT22;9887;54.366;10.958;2023-11-18T04:41:59;6.20;99.90
19493;DHT22;9887;54.366;10.958;2023-11-18T04:44:27;6.20;99.90
19493;DHT22;9887;54.366;10.958;2023-11-18T04:46:58;6.20;99.90
19493;DHT22;9887;54.366;10.958;2023-11-18T04:49:26;6.20;99.90
19493;DHT22;9887;54.366;10.958;2023-11-18T04:51:54;6.10;99.90
19493;DHT22;9887;54.366;10.958;2023-11-18T04:54:22;6.10;99.90
19493;DHT22;9887;54.366;10.958;2023-11-18T04:56:52;6.10;99.90
19493;DHT22;9887;54.366;10.958;2023-11-18T04:59:20;6.10;99.90
19493;DHT22;9887;54.366;10.958;2023-11-18T05:01:48;6.00;99.90
19493;DHT22;9887;54.366;10.958;2023-11-18T05:04:20;6.10;99.90
19493;DHT22;9887;54.366;10.958;2023-11-18T05:06:48;6.00;99.90
19493;DHT22;9887;54.366;10.958;2023-11-18T05:09:15;6.00;99.90
19493;DHT22;9887;54.366;10.958;2023-11-18T05:11:45;6.00;99.90
19493;DHT22;9887;54.366;10.958;2023-11-18T05:14:14;6.00;99.90
19493;DHT22;9887;54.366;10.958;2023-11-18T05:16:43;6.00;99.90
19493;DHT22;9887;54.366;10.958;2023-11-18T05:19:11;6.00;99.90
19493;DHT22;9887;54.366;10.958;2023-11-18T05:21:41;5.90;99.90
19493;DHT22;9887;54.366;10.958;2023-11-18T05:24:08;5.90;99.90
19493;DHT22;9887;54.366;10.958;2023-11-18T05:26:36;5.90;99.90
19493;DHT22;9887;54.366;10.958;2023-11-18T05:29:04;5.90;99.90
19493;DHT22;9887;54.366;10.958;2023-11-18T05:31:34;5.80;99.90
19493;DHT22;9887;54.366;10.958;2023-11-18T05:34:04;5.90;99.90
19493;DHT22;9887;54.366;10.958;2023-11-18T05:36:32;5.80;99.90
19493;DHT22;9887;54.366;10.958;2023-11-18T05:39:04;5.80;99.90
19493;DHT22;9887;54.366;10.958;2023-11-18T05:41:33;5.80;99.90
19493;DHT22;9887;54.366;10.958;2023-11-18T05:44:02;5.80;99.90
19493;DHT22;9887;54.366;10.958;2023-11-18T05:46:30;5.80;99.90
19493;DHT22;9887;54.366;10.958;2023-11-18T05:49:03;5.80;99.90
19493;DHT22;9887;54.366;10.958;2023-11-18T05:51:34;5.70;99.90
19493;DHT22;9887;54.366;10.958;2023-11-18T05:54:02;5.80;99.90
19493;DHT22;9887;54.366;10.958;2023-11-18T05:56:30;5.70;99.90
19493;DHT22;9887;54.366;10.958;2023-11-18T05:58:58;5.70;99.90
19493;DHT22;9887;54.366;10.958;2023-11-18T06:01:30;5.70;99.90
19493;DHT22;9887;54.366;10.958;2023-11-18T06:04:03;5.70;99.90
19493;DHT22;9887;54.366;10.958;2023-11-18T06:06:31;5.60;99.90
19493;DHT22;9887;54.366;10.958;2023-11-18T06:08:59;5.70;99.90
19493;DHT22;9887;54.366;10.958;2023-11-18T06:11:31;5.60;99.90
19493;DHT22;9887;54.366;10.958;2023-11-18T06:13:59;5.60;99.90
19493;DHT22;9887;54.366;10.958;2023-11-18T06:16:27;5.60;99.90
19493;DHT22;9887;54.366;10.958;2023-11-18T06:18:56;5.60;99.90
19493;DHT22;9887;54.366;10.958;2023-11-18T06:21:27;5.60;99.90
19493;DHT22;9887;54.366;10.958;2023-11-18T06:23:58;5.60;99.90
19493;DHT22;9887;54.366;10.958;2023-11-18T06:26:27;5.60;99.90
19493;DHT22;9887;54.366;10.958;2023-11-18T06:28:55;5.60;99.90
19493;DHT22;9887;54.366;10.958;2023-11-18T06:31:24;5.50;99.90
19493;DHT22;9887;54.366;10.958;2023-11-18T06:33:52;5.50;99.90
19493;DHT22;9887;54.366;10.958;2023-11-18T06:36:21;5.50;99.90
19493;DHT22;9887;54.366;10.958;2023-11-18T06:38:52;5.50;99.90
19493;DHT22;9887;54.366;10.958;2023-11-18T06:41:22;5.50;99.90
19493;DHT22;9887;54.366;10.958;2023-11-18T06:43:52;5.50;99.90
19493;DHT22;9887;54.366;10.958;2023-11-18T06:46:28;5.50;99.90
19493;DHT22;9887;54.366;10.958;2023-11-18T06:48:59;5.50;99.90
19493;DHT22;9887;54.366;10.958;2023-11-18T06:51:31;5.50;99.90
19493;DHT22;9887;54.366;10.958;2023-11-18T06:54:05;5.50;99.90
19493;DHT22;9887;54.366;10.958;2023-11-18T06:56:39;5.50;99.90
19493;DHT22;9887;54.366;10.958;2023-11-18T06:59:12;5.40;99.90
19493;DHT22;9887;54.366;10.958;2023-11-18T07:01:42;5.40;99.90
19493;DHT22;9887;54.366;10.958;2023-11-18T07:04:12;5.40;99.90
19493;DHT22;9887;54.366;10.958;2023-11-18T07:06:41;5.50;99.90
19493;DHT22;9887;54.366;10.958;2023-11-18T07:09:11;5.50;99.90
19493;DHT22;9887;54.366;10.958;2023-11-18T07:11:41;5.40;99.90
19493;DHT22;9887;54.366;10.958;2023-11-18T07:14:10;5.40;99.90
19493;DHT22;9887;54.366;10.958;2023-11-18T07:16:41;5.40;99.90
19493;DHT22;9887;54.366;10.958;2023-11-18T07:19:11;5.40;99.90
19493;DHT22;9887;54.366;10.958;2023-11-18T07:21:48;5.50;99.90
19493;DHT22;9887;54.366;10.958;2023-11-18T07:24:18;5.40;99.90
19493;DHT22;9887;54.366;10.958;2023-11-18T07:26:47;5.40;99.90
19493;DHT22;9887;54.366;10.958;2023-11-18T07:29:15;5.40;99.90
19493;DHT22;9887;54.366;10.958;2023-11-18T07:31:43;5.40;99.90
19493;DHT22;9887;54.366;10.958;2023-11-18T07:34:13;5.40;99.90
19493;DHT22;9887;54.366;10.958;2023-11-18T07:36:41;5.40;99.90
19493;DHT22;9887;54.366;10.958;2023-11-18T07:39:12;5.40;99.90
19493;DHT22;9887;54.366;10.958;2023-11-18T07:41:44;5.40;99.90
19493;DHT22;9887;54.366;10.958;2023-11-18T07:44:13;5.40;99.90
19493;DHT22;9887;54.366;10.958;2023-11-18T07:46:42;5.40;99.90
19493;DHT22;9887;54.366;10.958;2023-11-18T07:49:10;5.40;99.90
19493;DHT22;9887;54.366;10.958;2023-11-18T07:51:38;5.40;99.90
19493;DHT22;9887;54.366;10.958;2023-11-18T07:54:08;5.40;99.90
19493;DHT22;9887;54.366;10.958;2023-11-18T07:56:37;5.40;99.90
19493;DHT22;9887;54.366;10.958;2023-11-18T07:59:07;5.40;99.90
19493;DHT22;9887;54.366;10.958;2023-11-18T08:01:36;5.40;99.90
19493;DHT22;9887;54.366;10.958;2023-11-18T08:04:04;5.40;99.90
19493;DHT22;9887;54.366;10.958;2023-11-18T08:06:34;5.40;99.90
19493;DHT22;9887;54.366;10.958;2023-11-18T08:09:03;5.40;99.90
19493;DHT22;9887;54.366;10.958;2023-11-18T08:11:31;5.40;99.90
19493;DHT22;9887;54.366;10.958;2023-11-18T08:14:00;5.40;99.90
19493;DHT22;9887;54.366;10.958;2023-11-18T08:16:31;5.40;99.90
19493;DHT22;9887;54.366;10.958;2023-11-18T08:18:59;5.40;99.90
19493;DHT22;9887;54.366;10.958;2023-11-18T08:21:29;5.40;99.90
19493;DHT22;9887;54.366;10.958;2023-11-18T08:23:57;5.40;99.90
19493;DHT22;9887;54.366;10.958;2023-11-18T08:26:26;5.40;99.90
19493;DHT22;9887;54.366;10.958;2023-11-18T08:28:54;5.40;99.90
19493;DHT22;9887;54.366;10.958;2023-11-18T08:31:23;5.30;99.90
19493;DHT22;9887;54.366;10.958;2023-11-18T08:33:53;5.30;99.90
19493;DHT22;9887;54.366;10.958;2023-11-18T08:36:22;5.40;99.90
19493;DHT22;9887;54.366;10.958;2023-11-18T08:38:54;5.40;99.90
19493;DHT22;9887;54.366;10.958;2023-11-18T08:41:24;5.40;99.90
19493;DHT22;9887;54.366;10.958;2023-11-18T08:43:52;5.40;99.90
19493;DHT22;9887;54.366;10.958;2023-11-18T08:46:20;5.40;99.90
19493;DHT22;9887;54.366;10.958;2023-11-18T08:48:48;5.40;99.90
19493;DHT22;9887;54.366;10.958;2023-11-18T08:51:17;5.40;99.90
19493;DHT22;9887;54.366;10.958;2023-11-18T08:53:45;5.40;99.90
19493;DHT22;9887;54.366;10.958;2023-11-18T08:56:14;5.40;99.90
19493;DHT22;9887;54.366;10.958;2023-11-18T08:58:43;5.40;99.90
19493;DHT22;9887;54.366;10.958;2023-11-18T09:01:12;5.30;99.90
19493;DHT22;9887;54.366;10.958;2023-11-18T09:03:42;5.40;99.90
19493;DHT22;9887;54.366;10.958;2023-11-18T09:06:16;5.40;99.90
19493;DHT22;9887;54.366;10.958;2023-11-18T09:08:54;5.40;99.90
19493;DHT22;9887;54.366;10.958;2023-11-18T09:11:24;5.40;99.90
19493;DHT22;9887;54.366;10.958;2023-11-18T09:13:55;5.40;99.90
19493;DHT22;9887;54.366;10.958;2023-11-18T09:16:28;5.40;99.90
19493;DHT22;9887;54.366;10.958;2023-11-18T09:18:57;5.40;99.90
19493;DHT22;9887;54.366;10.958;2023-11-18T09:21:28;5.40;99.90
19493;DHT22;9887;54.366;10.958;2023-11-18T09:23:57;5.40;99.90
19493;DHT22;9887;54.366;10.958;2023-11-18T09:26:24;5.40;99.90
19493;DHT22;9887;54.366;10.958;2023-11-18T09:28:57;5.40;99.90
19493;DHT22;9887;54.366;10.958;2023-11-18T09:31:25;5.40;99.90
19493;DHT22;9887;54.366;10.958;2023-11-18T09:33:54;5.50;99.90
19493;DHT22;9887;54.366;10.958;2023-11-18T09:36:24;5.50;99.90
19493;DHT22;9887;54.366;10.958;2023-11-18T09:38:56;5.40;99.90
19493;DHT22;9887;54.366;10.958;2023-11-18T09:41:25;5.50;99.90
19493;DHT22;9887;54.366;10.958;2023-11-18T09:43:54;5.50;99.90
19493;DHT22;9887;54.366;10.958;2023-11-18T09:46:25;5.50;99.90
19493;DHT22;9887;54.366;10.958;2023-11-18T09:49:06;5.50;99.90
19493;DHT22;9887;54.366;10.958;2023-11-18T09:51:43;5.50;99.90
19493;DHT22;9887;54.366;10.958;2023-11-18T09:54:19;5.50;99.90
19493;DHT22;9887;54.366;10.958;2023-11-18T09:56:56;5.50;99.90
19493;DHT22;9887;54.366;10.958;2023-11-18T09:59:42;5.60;99.90
19493;DHT22;9887;54.366;10.958;2023-11-18T10:02:12;5.60;99.90
19493;DHT22;9887;54.366;10.958;2023-11-18T10:04:41;5.60;99.90
19493;DHT22;9887;54.366;10.958;2023-11-18T10:07:13;5.60;99.90
19493;DHT22;9887;54.366;10.958;2023-11-18T10:09:45;5.70;99.90
19493;DHT22;9887;54.366;10.958;2023-11-18T10:12:15;5.70;99.90
19493;DHT22;9887;54.366;10.958;2023-11-18T10:14:51;5.80;99.90
19493;DHT22;9887;54.366;10.958;2023-11-18T10:17:20;5.80;99.90
19493;DHT22;9887;54.366;10.958;2023-11-18T10:19:55;5.80;99.90
19493;DHT22;9887;54.366;10.958;2023-11-18T10:22:25;5.90;99.90
19493;DHT22;9887;54.366;10.958;2023-11-18T10:24:56;5.90;99.90
19493;DHT22;9887;54.366;10.958;2023-11-18T10:27:27;5.90;99.90
19493;DHT22;9887;54.366;10.958;2023-11-18T10:29:56;6.00;99.90
19493;DHT22;9887;54.366;10.958;2023-11-18T10:32:24;6.00;99.90
19493;DHT22;9887;54.366;10.958;2023-11-18T10:34:55;6.00;99.90
19493;DHT22;9887;54.366;10.958;2023-11-18T10:37:25;6.00;99.90
19493;DHT22;9887;54.366;10.958;2023-11-18T10:40:03;6.10;99.90
19493;DHT22;9887;54.366;10.958;2023-11-18T10:42:32;6.10;99.90
19493;DHT22;9887;54.366;10.958;2023-11-18T10:45:00;6.10;99.90
19493;DHT22;9887;54.366;10.958;2023-11-18T10:47:33;6.20;99.90
19493;DHT22;9887;54.366;10.958;2023-11-18T10:50:03;6.20;99.90
19493;DHT22;9887;54.366;10.958;2023-11-18T10:52:31;6.20;99.90
19493;DHT22;9887;54.366;10.958;2023-11-18T10:55:04;6.30;99.90
19493;DHT22;9887;54.366;10.958;2023-11-18T10:57:40;6.30;99.90
19493;DHT22;9887;54.366;10.958;2023-11-18T11:00:10;6.30;99.90
19493;DHT22;9887;54.366;10.958;2023-11-18T11:02:43;6.30;99.90
19493;DHT22;9887;54.366;10.958;2023-11-18T11:05:11;6.40;99.90
19493;DHT22;9887;54.366;10.958;2023-11-18T11:07:48;6.40;99.90
19493;DHT22;9887;54.366;10.958;2023-11-18T11:10:18;6.40;99.90
19493;DHT22;9887;54.366;10.958;2023-11-18T11:12:54;6.50;99.90
19493;DHT22;9887;54.366;10.958;2023-11-18T11:15:26;6.50;99.90
19493;DHT22;9887;54.366;10.958;2023-11-18T11:18:04;6.50;99.90
19493;DHT22;9887;54.366;10.958;2023-11-18T11:20:41;6.50;99.90
19493;DHT22;9887;54.366;10.958;2023-11-18T11:23:17;6.60;99.90
19493;DHT22;9887;54.366;10.958;2023-11-18T11:26:02;6.60;99.90
19493;DHT22;9887;54.366;10.958;2023-11-18T11:28:42;6.70;99.90
19493;DHT22;9887;54.366;10.958;2023-11-18T11:31:15;6.70;99.90
19493;DHT22;9887;54.366;10.958;2023-11-18T11:33:54;6.70;99.90
19493;DHT22;9887;54.366;10.958;2023-11-18T11:36:28;6.70;99.90
19493;DHT22;9887;54.366;10.958;2023-11-18T11:38:59;6.70;99.90
19493;DHT22;9887;54.366;10.958;2023-11-18T11:41:31;6.80;99.90
19493;DHT22;9887;54.366;10.958;2023-11-18T11:44:01;6.80;99.90
19493;DHT22;9887;54.366;10.958;2023-11-18T11:46:33;6.90;99.90
19493;DHT22;9887;54.366;10.958;2023-11-18T11:49:03;6.90;99.90
19493;DHT22;9887;54.366;10.958;2023-11-18T11:51:45;6.90;99.90
19493;DHT22;9887;54.366;10.958;2023-11-18T11:54:18;7.00;99.90
19493;DHT22;9887;54.366;10.958;2023-11-18T11:56:49;7.00;99.90
19493;DHT22;9887;54.366;10.958;2023-11-18T11:59:35;7.00;99.90
19493;DHT22;9887;54.366;10.958;2023-11-18T12:02:05;7.00;99.90
19493;DHT22;9887;54.366;10.958;2023-11-18T12:04:35;7.10;99.90
19493;DHT22;9887;54.366;10.958;2023-11-18T12:07:05;7.10;99.90
19493;DHT22;9887;54.366;10.958;2023-11-18T12:09:46;7.10;99.90
19493;DHT22;9887;54.366;10.958;2023-11-18T12:12:23;7.10;99.90
19493;DHT22;9887;54.366;10.958;2023-11-18T12:14:54;7.20;99.90
19493;DHT22;9887;54.366;10.958;2023-11-18T12:17:24;7.20;99.90
19493;DHT22;9887;54.366;10.958;2023-11-18T12:19:58;7.20;99.90
19493;DHT22;9887;54.366;10.958;2023-11-18T12:22:27;7.30;99.90
19493;DHT22;9887;54.366;10.958;2023-11-18T12:25:30;7.30;99.90
19493;DHT22;9887;54.366;10.958;2023-11-18T12:28:11;7.30;99.90
19493;DHT22;9887;54.366;10.958;2023-11-18T12:30:44;7.30;99.90
19493;DHT22;9887;54.366;10.958;2023-11-18T12:33:26;7.30;99.90
19493;DHT22;9887;54.366;10.958;2023-11-18T12:36:22;7.40;99.90
19493;DHT22;9887;54.366;10.958;2023-11-18T12:42:27;7.40;99.90
19493;DHT22;9887;54.366;10.958;2023-11-18T12:45:16;7.40;99.90
19493;DHT22;9887;54.366;10.958;2023-11-18T12:47:53;7.40;99.90
19493;DHT22;9887;54.366;10.958;2023-11-18T12:50:25;7.40;99.90
19493;DHT22;9887;54.366;10.958;2023-11-18T12:52:55;7.40;99.90
19493;DHT22;9887;54.366;10.958;2023-11-18T12:55:24;7.40;99.90
19493;DHT22;9887;54.366;10.958;2023-11-18T12:57:53;7.40;99.90
19493;DHT22;9887;54.366;10.958;2023-11-18T13:00:22;7.40;99.90
19493;DHT22;9887;54.366;10.958;2023-11-18T13:02:55;7.40;99.90
19493;DHT22;9887;54.366;10.958;2023-11-18T13:05:25;7.40;99.90
19493;DHT22;9887;54.366;10.958;2023-11-18T13:07:56;7.40;99.90
19493;DHT22;9887;54.366;10.958;2023-11-18T13:10:26;7.40;99.90
19493;DHT22;9887;54.366;10.958;2023-11-18T13:12:54;7.40;99.90
19493;DHT22;9887;54.366;10.958;2023-11-18T13:15:24;7.40;99.90
19493;DHT22;9887;54.366;10.958;2023-11-18T13:17:59;7.40;99.90
19493;DHT22;9887;54.366;10.958;2023-11-18T13:20:27;7.40;99.90
19493;DHT22;9887;54.366;10.958;2023-11-18T13:22:55;7.40;99.90
19493;DHT22;9887;54.366;10.958;2023-11-18T13:25:23;7.40;99.90
19493;DHT22;9887;54.366;10.958;2023-11-18T13:27:51;7.40;99.90
19493;DHT22;9887;54.366;10.958;2023-11-18T13:30:21;7.40;99.90
19493;DHT22;9887;54.366;10.958;2023-11-18T13:32:52;7.40;99.90
19493;DHT22;9887;54.366;10.958;2023-11-18T13:35:20;7.40;99.90
19493;DHT22;9887;54.366;10.958;2023-11-18T13:37:50;7.40;99.90
19493;DHT22;9887;54.366;10.958;2023-11-18T13:40:20;7.40;99.90
19493;DHT22;9887;54.366;10.958;2023-11-18T13:43:01;7.40;99.90
19493;DHT22;9887;54.366;10.958;2023-11-18T13:45:29;7.40;99.90
19493;DHT22;9887;54.366;10.958;2023-11-18T13:48:05;7.40;99.90
19493;DHT22;9887;54.366;10.958;2023-11-18T13:50:35;7.30;99.90
19493;DHT22;9887;54.366;10.958;2023-11-18T13:53:04;7.40;99.90
19493;DHT22;9887;54.366;10.958;2023-11-18T13:55:33;7.30;99.90
19493;DHT22;9887;54.366;10.958;2023-11-18T13:58:03;7.30;99.90
19493;DHT22;9887;54.366;10.958;2023-11-18T14:00:33;7.30;99.90
19493;DHT22;9887;54.366;10.958;2023-11-18T14:03:04;7.30;99.90
19493;DHT22;9887;54.366;10.958;2023-11-18T14:05:34;7.30;99.90
19493;DHT22;9887;54.366;10.958;2023-11-18T14:08:04;7.30;99.90
19493;DHT22;9887;54.366;10.958;2023-11-18T14:10:37;7.20;99.90
19493;DHT22;9887;54.366;10.958;2023-11-18T14:13:07;7.20;99.90
19493;DHT22;9887;54.366;10.958;2023-11-18T14:15:40;7.20;99.90
19493;DHT22;9887;54.366;10.958;2023-11-18T14:18:13;7.20;99.90
19493;DHT22;9887;54.366;10.958;2023-11-18T14:20:41;7.20;99.90
19493;DHT22;9887;54.366;10.958;2023-11-18T14:23:09;7.20;99.90
19493;DHT22;9887;54.366;10.958;2023-11-18T14:25:38;7.10;99.90
19493;DHT22;9887;54.366;10.958;2023-11-18T14:28:05;7.10;99.90
19493;DHT22;9887;54.366;10.958;2023-11-18T14:30:35;7.10;99.90
19493;DHT22;9887;54.366;10.958;2023-11-18T14:33:04;7.10;99.90
19493;DHT22;9887;54.366;10.958;2023-11-18T14:35:35;7.00;99.90
19493;DHT22;9887;54.366;10.958;2023-11-18T14:38:03;7.00;99.90
19493;DHT22;9887;54.366;10.958;2023-11-18T14:40:32;7.00;99.90
19493;DHT22;9887;54.366;10.958;2023-11-18T14:43:00;7.00;99.90
19493;DHT22;9887;54.366;10.958;2023-11-18T14:45:28;7.00;99.90
19493;DHT22;9887;54.366;10.958;2023-11-18T14:47:56;6.90;99.90
19493;DHT22;9887;54.366;10.958;2023-11-18T14:50:24;6.90;99.90
19493;DHT22;9887;54.366;10.958;2023-11-18T14:52:56;6.90;99.90
19493;DHT22;9887;54.366;10.958;2023-11-18T14:55:28;6.90;99.90
19493;DHT22;9887;54.366;10.958;2023-11-18T14:57:56;6.90;99.90
19493;DHT22;9887;54.366;10.958;2023-11-18T15:00:24;6.80;99.90
19493;DHT22;9887;54.366;10.958;2023-11-18T15:02:54;6.80;99.90
19493;DHT22;9887;54.366;10.958;2023-11-18T15:05:26;6.80;99.90
19493;DHT22;9887;54.366;10.958;2023-11-18T15:07:57;6.80;99.90
19493;DHT22;9887;54.366;10.958;2023-11-18T15:10:27;6.80;99.90
19493;DHT22;9887;54.366;10.958;2023-11-18T15:12:56;6.80;99.90
19493;DHT22;9887;54.366;10.958;2023-11-18T15:15:26;6.70;99.90
19493;DHT22;9887;54.366;10.958;2023-11-18T15:18:03;6.70;99.90
19493;DHT22;9887;54.366;10.958;2023-11-18T15:20:36;6.70;99.90
19493;DHT22;9887;54.366;10.958;2023-11-18T15:23:11;6.70;99.90
19493;DHT22;9887;54.366;10.958;2023-11-18T15:25:39;6.70;99.90
19493;DHT22;9887;54.366;10.958;2023-11-18T15:28:08;6.70;99.90
19493;DHT22;9887;54.366;10.958;2023-11-18T15:30:37;6.60;99.90
19493;DHT22;9887;54.366;10.958;2023-11-18T15:33:07;6.60;99.90
19493;DHT22;9887;54.366;10.958;2023-11-18T15:35:35;6.60;99.90
19493;DHT22;9887;54.366;10.958;2023-11-18T15:38:05;6.60;99.90
19493;DHT22;9887;54.366;10.958;2023-11-18T15:40:37;6.60;99.90
19493;DHT22;9887;54.366;10.958;2023-11-18T15:43:05;6.60;99.90
19493;DHT22;9887;54.366;10.958;2023-11-18T15:45:33;6.60;99.90
19493;DHT22;9887;54.366;10.958;2023-11-18T15:48:01;6.50;99.90
19493;DHT22;9887;54.366;10.958;2023-11-18T15:50:32;6.50;99.90
19493;DHT22;9887;54.366;10.958;2023-11-18T15:53:04;6.50;99.90
19493;DHT22;9887;54.366;10.958;2023-11-18T15:55:33;6.50;99.90
19493;DHT22;9887;54.366;10.958;2023-11-18T15:58:04;6.50;99.90
19493;DHT22;9887;54.366;10.958;2023-11-18T16:00:33;6.50;99.90
19493;DHT22;9887;54.366;10.958;2023-11-18T16:03:05;6.40;99.90
19493;DHT22;9887;54.366;10.958;2023-11-18T16:05:36;6.40;99.90
19493;DHT22;9887;54.366;10.958;2023-11-18T16:08:04;6.40;99.90